sensor_id;sensor_type;location;lat;lon;timestamp;P1;durP1;ratioP1;P2;durP2;ratioP2
66095;SDS011;53861;53.422;14.530;2024-03-22T00:01:58;30.88;;;11.20;;
66095;SDS011;53861;53.422;14.530;2024-03-22T00:04:25;31.95;;;10.85;;
66095;SDS011;53861;53.422;14.530;2024-03-22T00:06:53;32.67;;;11.23;;
66095;SDS011;53861;53.422;14.530;2024-03-22T00:09:20;33.70;;;11.77;;
66095;SDS011;53861;53.422;14.530;2024-03-22T00:11:46;34.63;;;11.95;;
66095;SDS011;53861;53.422;14.530;2024-03-22T00:14:14;28.52;;;11.18;;
66095;SDS011;53861;53.422;14.530;2024-03-22T00:16:40;29.42;;;10.88;;
66095;SDS011;53861;53.422;14.530;2024-03-22T00:19:07;31.25;;;10.93;;
66095;SDS011;53861;53.422;14.530;2024-03-22T00:21:33;32.50;;;11.57;;
66095;SDS011;53861;53.422;14.530;2024-03-22T00:24:02;30.63;;;10.70;;
66095;SDS011;53861;53.422;14.530;2024-03-22T00:26:28;27.83;;;10.88;;
66095;SDS011;53861;53.422;14.530;2024-03-22T00:28:56;32.28;;;11.88;;
66095;SDS011;53861;53.422;14.530;2024-03-22T00:31:23;26.02;;;9.77;;
66095;SDS011;53861;53.422;14.530;2024-03-22T00:33:51;27.05;;;9.85;;
66095;SDS011;53861;53.422;14.530;2024-03-22T00:36:17;26.27;;;9.05;;
66095;SDS011;53861;53.422;14.530;2024-03-22T00:38:45;24.67;;;9.00;;
66095;SDS011;53861;53.422;14.530;2024-03-22T00:41:13;24.90;;;8.70;;
66095;SDS011;53861;53.422;14.530;2024-03-22T00:43:41;21.08;;;7.97;;
66095;SDS011;53861;53.422;14.530;2024-03-22T00:46:07;25.35;;;9.57;;
66095;SDS011;53861;53.422;14.530;2024-03-22T00:48:34;26.20;;;8.70;;
66095;SDS011;53861;53.422;14.530;2024-03-22T00:51:01;24.77;;;8.93;;
66095;SDS011;53861;53.422;14.530;2024-03-22T00:53:28;23.70;;;8.48;;
66095;SDS011;53861;53.422;14.530;2024-03-22T00:55:55;20.33;;;7.50;;
66095;SDS011;53861;53.422;14.530;2024-03-22T00:58:26;20.10;;;7.63;;
66095;SDS011;53861;53.422;14.530;2024-03-22T01:01:01;22.50;;;8.35;;
66095;SDS011;53861;53.422;14.530;2024-03-22T01:03:29;21.58;;;7.70;;
66095;SDS011;53861;53.422;14.530;2024-03-22T01:05:55;21.60;;;7.97;;
66095;SDS011;53861;53.422;14.530;2024-03-22T01:08:23;20.00;;;7.22;;
66095;SDS011;53861;53.422;14.530;2024-03-22T01:10:49;23.27;;;8.30;;
66095;SDS011;53861;53.422;14.530;2024-03-22T01:13:16;22.92;;;8.23;;
66095;SDS011;53861;53.422;14.530;2024-03-22T01:15:53;26.15;;;8.43;;
66095;SDS011;53861;53.422;14.530;2024-03-22T01:18:20;24.23;;;8.10;;
66095;SDS011;53861;53.422;14.530;2024-03-22T01:20:46;25.98;;;7.80;;
66095;SDS011;53861;53.422;14.530;2024-03-22T01:23:14;23.75;;;8.63;;
66095;SDS011;53861;53.422;14.530;2024-03-22T01:25:40;25.80;;;8.73;;
66095;SDS011;53861;53.422;14.530;2024-03-22T01:28:07;26.60;;;9.52;;
66095;SDS011;53861;53.422;14.530;2024-03-22T01:30:33;23.52;;;8.10;;
66095;SDS011;53861;53.422;14.530;2024-03-22T01:33:03;23.98;;;8.43;;
66095;SDS011;53861;53.422;14.530;2024-03-22T01:35:30;23.63;;;8.20;;
66095;SDS011;53861;53.422;14.530;2024-03-22T01:37:57;21.00;;;7.82;;
66095;SDS011;53861;53.422;14.530;2024-03-22T01:40:23;24.48;;;9.45;;
66095;SDS011;53861;53.422;14.530;2024-03-22T01:42:52;25.33;;;9.13;;
66095;SDS011;53861;53.422;14.530;2024-03-22T01:45:19;24.80;;;8.68;;
66095;SDS011;53861;53.422;14.530;2024-03-22T01:47:47;22.67;;;8.45;;
66095;SDS011;53861;53.422;14.530;2024-03-22T01:50:15;25.73;;;8.55;;
66095;SDS011;53861;53.422;14.530;2024-03-22T01:52:42;20.80;;;7.93;;
66095;SDS011;53861;53.422;14.530;2024-03-22T01:55:08;25.50;;;8.57;;
66095;SDS011;53861;53.422;14.530;2024-03-22T01:57:35;24.80;;;9.20;;
66095;SDS011;53861;53.422;14.530;2024-03-22T02:00:02;22.83;;;7.70;;
66095;SDS011;53861;53.422;14.530;2024-03-22T02:02:30;24.88;;;8.88;;
66095;SDS011;53861;53.422;14.530;2024-03-22T02:04:56;26.60;;;8.75;;
66095;SDS011;53861;53.422;14.530;2024-03-22T02:07:26;21.08;;;8.15;;
66095;SDS011;53861;53.422;14.530;2024-03-22T02:09:55;23.50;;;8.27;;
66095;SDS011;53861;53.422;14.530;2024-03-22T02:12:23;23.30;;;8.20;;
66095;SDS011;53861;53.422;14.530;2024-03-22T02:14:50;25.65;;;9.30;;
66095;SDS011;53861;53.422;14.530;2024-03-22T02:17:17;23.73;;;8.52;;
66095;SDS011;53861;53.422;14.530;2024-03-22T02:19:43;23.10;;;8.05;;
66095;SDS011;53861;53.422;14.530;2024-03-22T02:22:10;24.98;;;8.35;;
66095;SDS011;53861;53.422;14.530;2024-03-22T02:24:38;22.48;;;7.93;;
66095;SDS011;53861;53.422;14.530;2024-03-22T02:27:05;22.85;;;8.50;;
66095;SDS011;53861;53.422;14.530;2024-03-22T02:29:32;21.17;;;7.32;;
66095;SDS011;53861;53.422;14.530;2024-03-22T02:31:59;22.05;;;7.78;;
66095;SDS011;53861;53.422;14.530;2024-03-22T02:34:26;27.05;;;9.05;;
66095;SDS011;53861;53.422;14.530;2024-03-22T02:36:52;25.40;;;8.70;;
66095;SDS011;53861;53.422;14.530;2024-03-22T02:39:19;25.33;;;8.88;;
66095;SDS011;53861;53.422;14.530;2024-03-22T02:41:52;25.63;;;8.35;;
66095;SDS011;53861;53.422;14.530;2024-03-22T02:44:18;22.05;;;7.43;;
66095;SDS011;53861;53.422;14.530;2024-03-22T02:46:45;23.65;;;7.85;;
66095;SDS011;53861;53.422;14.530;2024-03-22T02:49:12;26.85;;;8.30;;
66095;SDS011;53861;53.422;14.530;2024-03-22T02:51:39;25.00;;;8.52;;
66095;SDS011;53861;53.422;14.530;2024-03-22T02:54:05;23.88;;;7.88;;
66095;SDS011;53861;53.422;14.530;2024-03-22T02:56:32;23.42;;;8.25;;
66095;SDS011;53861;53.422;14.530;2024-03-22T02:59:00;23.45;;;8.10;;
66095;SDS011;53861;53.422;14.530;2024-03-22T03:01:27;22.05;;;7.18;;
66095;SDS011;53861;53.422;14.530;2024-03-22T03:03:53;26.08;;;8.25;;
66095;SDS011;53861;53.422;14.530;2024-03-22T03:06:24;26.02;;;9.15;;
66095;SDS011;53861;53.422;14.530;2024-03-22T03:09:13;20.30;;;6.63;;
66095;SDS011;53861;53.422;14.530;2024-03-22T03:11:43;22.60;;;7.55;;
66095;SDS011;53861;53.422;14.530;2024-03-22T03:14:11;24.27;;;8.20;;
66095;SDS011;53861;53.422;14.530;2024-03-22T03:16:38;27.30;;;8.75;;
66095;SDS011;53861;53.422;14.530;2024-03-22T03:19:04;22.83;;;8.63;;
66095;SDS011;53861;53.422;14.530;2024-03-22T03:21:32;22.25;;;7.88;;
66095;SDS011;53861;53.422;14.530;2024-03-22T03:23:58;24.75;;;8.55;;
66095;SDS011;53861;53.422;14.530;2024-03-22T03:26:25;25.30;;;8.15;;
66095;SDS011;53861;53.422;14.530;2024-03-22T03:28:51;18.35;;;7.05;;
66095;SDS011;53861;53.422;14.530;2024-03-22T03:31:22;22.58;;;7.85;;
66095;SDS011;53861;53.422;14.530;2024-03-22T03:33:48;26.67;;;8.63;;
66095;SDS011;53861;53.422;14.530;2024-03-22T03:36:15;24.67;;;8.25;;
66095;SDS011;53861;53.422;14.530;2024-03-22T03:38:41;25.67;;;8.27;;
66095;SDS011;53861;53.422;14.530;2024-03-22T03:41:09;23.33;;;8.75;;
66095;SDS011;53861;53.422;14.530;2024-03-22T03:43:35;22.25;;;7.43;;
66095;SDS011;53861;53.422;14.530;2024-03-22T03:46:02;23.90;;;8.75;;
66095;SDS011;53861;53.422;14.530;2024-03-22T03:48:30;21.98;;;7.80;;
66095;SDS011;53861;53.422;14.530;2024-03-22T03:50:59;26.77;;;8.70;;
66095;SDS011;53861;53.422;14.530;2024-03-22T03:53:28;24.60;;;9.18;;
66095;SDS011;53861;53.422;14.530;2024-03-22T03:55:56;22.52;;;8.73;;
66095;SDS011;53861;53.422;14.530;2024-03-22T03:58:22;22.58;;;8.30;;
66095;SDS011;53861;53.422;14.530;2024-03-22T04:00:50;24.77;;;8.02;;
66095;SDS011;53861;53.422;14.530;2024-03-22T04:03:16;24.80;;;8.68;;
66095;SDS011;53861;53.422;14.530;2024-03-22T04:05:44;21.95;;;7.90;;
66095;SDS011;53861;53.422;14.530;2024-03-22T04:08:11;20.20;;;6.93;;
66095;SDS011;53861;53.422;14.530;2024-03-22T04:10:38;21.63;;;8.13;;
66095;SDS011;53861;53.422;14.530;2024-03-22T04:13:04;21.80;;;8.02;;
66095;SDS011;53861;53.422;14.530;2024-03-22T04:15:33;24.58;;;8.30;;
66095;SDS011;53861;53.422;14.530;2024-03-22T04:18:00;24.70;;;9.82;;
66095;SDS011;53861;53.422;14.530;2024-03-22T04:20:27;25.30;;;9.48;;
66095;SDS011;53861;53.422;14.530;2024-03-22T04:22:55;26.85;;;9.68;;
66095;SDS011;53861;53.422;14.530;2024-03-22T04:25:22;15.95;;;5.95;;
66095;SDS011;53861;53.422;14.530;2024-03-22T04:27:48;25.48;;;9.88;;
66095;SDS011;53861;53.422;14.530;2024-03-22T04:30:15;24.20;;;7.97;;
66095;SDS011;53861;53.422;14.530;2024-03-22T04:32:42;27.38;;;9.35;;
66095;SDS011;53861;53.422;14.530;2024-03-22T04:35:12;23.83;;;8.98;;
66095;SDS011;53861;53.422;14.530;2024-03-22T04:37:38;24.65;;;8.07;;
66095;SDS011;53861;53.422;14.530;2024-03-22T04:40:08;24.90;;;8.80;;
66095;SDS011;53861;53.422;14.530;2024-03-22T04:42:36;27.05;;;9.93;;
66095;SDS011;53861;53.422;14.530;2024-03-22T04:45:03;23.35;;;8.55;;
66095;SDS011;53861;53.422;14.530;2024-03-22T04:47:31;22.92;;;8.40;;
66095;SDS011;53861;53.422;14.530;2024-03-22T04:49:57;23.23;;;8.85;;
66095;SDS011;53861;53.422;14.530;2024-03-22T04:52:24;22.73;;;8.85;;
66095;SDS011;53861;53.422;14.530;2024-03-22T04:54:51;27.27;;;9.23;;
66095;SDS011;53861;53.422;14.530;2024-03-22T04:57:19;30.50;;;11.68;;
66095;SDS011;53861;53.422;14.530;2024-03-22T04:59:45;29.73;;;10.98;;
66095;SDS011;53861;53.422;14.530;2024-03-22T05:02:13;27.13;;;11.00;;
66095;SDS011;53861;53.422;14.530;2024-03-22T05:04:39;35.80;;;13.88;;
66095;SDS011;53861;53.422;14.530;2024-03-22T05:07:06;26.48;;;9.60;;
66095;SDS011;53861;53.422;14.530;2024-03-22T05:09:32;25.40;;;9.90;;
66095;SDS011;53861;53.422;14.530;2024-03-22T05:12:00;38.30;;;14.75;;
66095;SDS011;53861;53.422;14.530;2024-03-22T05:14:27;45.22;;;16.85;;
66095;SDS011;53861;53.422;14.530;2024-03-22T05:16:54;47.72;;;18.77;;
66095;SDS011;53861;53.422;14.530;2024-03-22T05:19:21;31.92;;;12.98;;
66095;SDS011;53861;53.422;14.530;2024-03-22T05:21:48;26.15;;;9.15;;
66095;SDS011;53861;53.422;14.530;2024-03-22T05:24:14;26.15;;;9.68;;
66095;SDS011;53861;53.422;14.530;2024-03-22T05:26:41;25.10;;;10.07;;
66095;SDS011;53861;53.422;14.530;2024-03-22T05:29:08;23.23;;;9.52;;
66095;SDS011;53861;53.422;14.530;2024-03-22T05:31:45;29.73;;;11.55;;
66095;SDS011;53861;53.422;14.530;2024-03-22T05:34:14;29.50;;;10.57;;
66095;SDS011;53861;53.422;14.530;2024-03-22T05:36:41;28.77;;;9.45;;
66095;SDS011;53861;53.422;14.530;2024-03-22T05:39:08;20.27;;;8.25;;
66095;SDS011;53861;53.422;14.530;2024-03-22T05:41:36;18.48;;;7.53;;
66095;SDS011;53861;53.422;14.530;2024-03-22T05:44:03;24.27;;;8.60;;
66095;SDS011;53861;53.422;14.530;2024-03-22T05:46:30;27.60;;;9.88;;
66095;SDS011;53861;53.422;14.530;2024-03-22T05:48:59;25.05;;;9.18;;
66095;SDS011;53861;53.422;14.530;2024-03-22T05:51:25;23.50;;;10.05;;
66095;SDS011;53861;53.422;14.530;2024-03-22T05:53:52;28.23;;;11.18;;
66095;SDS011;53861;53.422;14.530;2024-03-22T05:56:18;24.88;;;9.57;;
66095;SDS011;53861;53.422;14.530;2024-03-22T05:59:00;26.23;;;9.35;;
66095;SDS011;53861;53.422;14.530;2024-03-22T06:01:27;24.77;;;9.40;;
66095;SDS011;53861;53.422;14.530;2024-03-22T06:03:53;23.15;;;9.35;;
66095;SDS011;53861;53.422;14.530;2024-03-22T06:06:22;17.83;;;7.68;;
66095;SDS011;53861;53.422;14.530;2024-03-22T06:08:50;27.77;;;9.35;;
66095;SDS011;53861;53.422;14.530;2024-03-22T06:11:19;22.00;;;8.05;;
66095;SDS011;53861;53.422;14.530;2024-03-22T06:13:47;23.00;;;9.65;;
66095;SDS011;53861;53.422;14.530;2024-03-22T06:16:14;23.60;;;8.80;;
66095;SDS011;53861;53.422;14.530;2024-03-22T06:18:40;22.08;;;8.60;;
66095;SDS011;53861;53.422;14.530;2024-03-22T06:21:08;24.88;;;10.15;;
66095;SDS011;53861;53.422;14.530;2024-03-22T06:23:35;18.70;;;8.02;;
66095;SDS011;53861;53.422;14.530;2024-03-22T06:26:02;26.95;;;11.02;;
66095;SDS011;53861;53.422;14.530;2024-03-22T06:28:29;22.25;;;9.23;;
66095;SDS011;53861;53.422;14.530;2024-03-22T06:30:56;29.15;;;11.55;;
66095;SDS011;53861;53.422;14.530;2024-03-22T06:33:23;26.17;;;10.35;;
66095;SDS011;53861;53.422;14.530;2024-03-22T06:35:50;29.40;;;10.98;;
66095;SDS011;53861;53.422;14.530;2024-03-22T06:38:16;25.15;;;11.57;;
66095;SDS011;53861;53.422;14.530;2024-03-22T06:40:45;21.35;;;9.50;;
66095;SDS011;53861;53.422;14.530;2024-03-22T06:43:11;27.23;;;10.63;;
66095;SDS011;53861;53.422;14.530;2024-03-22T06:45:38;30.65;;;12.02;;
66095;SDS011;53861;53.422;14.530;2024-03-22T06:48:05;28.08;;;11.95;;
66095;SDS011;53861;53.422;14.530;2024-03-22T06:50:32;28.92;;;11.60;;
66095;SDS011;53861;53.422;14.530;2024-03-22T06:52:59;31.70;;;11.77;;
66095;SDS011;53861;53.422;14.530;2024-03-22T06:55:26;29.52;;;11.13;;
66095;SDS011;53861;53.422;14.530;2024-03-22T06:57:53;28.70;;;10.88;;
66095;SDS011;53861;53.422;14.530;2024-03-22T07:00:21;24.05;;;9.63;;
66095;SDS011;53861;53.422;14.530;2024-03-22T07:02:47;13.93;;;5.45;;
66095;SDS011;53861;53.422;14.530;2024-03-22T07:05:15;21.02;;;8.30;;
66095;SDS011;53861;53.422;14.530;2024-03-22T07:07:41;26.23;;;11.95;;
66095;SDS011;53861;53.422;14.530;2024-03-22T07:10:09;25.35;;;10.57;;
66095;SDS011;53861;53.422;14.530;2024-03-22T07:12:35;25.15;;;11.10;;
66095;SDS011;53861;53.422;14.530;2024-03-22T07:15:04;31.08;;;12.88;;
66095;SDS011;53861;53.422;14.530;2024-03-22T07:17:32;30.92;;;12.80;;
66095;SDS011;53861;53.422;14.530;2024-03-22T07:19:58;24.30;;;10.40;;
66095;SDS011;53861;53.422;14.530;2024-03-22T07:22:26;29.40;;;12.05;;
66095;SDS011;53861;53.422;14.530;2024-03-22T07:24:53;27.58;;;12.23;;
66095;SDS011;53861;53.422;14.530;2024-03-22T07:27:21;29.98;;;12.52;;
66095;SDS011;53861;53.422;14.530;2024-03-22T07:29:47;18.27;;;8.13;;
66095;SDS011;53861;53.422;14.530;2024-03-22T07:32:16;29.50;;;12.32;;
66095;SDS011;53861;53.422;14.530;2024-03-22T07:34:45;26.00;;;11.40;;
66095;SDS011;53861;53.422;14.530;2024-03-22T07:37:12;29.02;;;12.13;;
66095;SDS011;53861;53.422;14.530;2024-03-22T07:39:39;28.48;;;12.30;;
66095;SDS011;53861;53.422;14.530;2024-03-22T07:42:06;27.85;;;12.38;;
66095;SDS011;53861;53.422;14.530;2024-03-22T07:44:32;29.58;;;11.80;;
66095;SDS011;53861;53.422;14.530;2024-03-22T07:47:01;22.90;;;10.18;;
66095;SDS011;53861;53.422;14.530;2024-03-22T07:49:40;29.05;;;12.23;;
66095;SDS011;53861;53.422;14.530;2024-03-22T07:52:07;22.52;;;9.80;;
66095;SDS011;53861;53.422;14.530;2024-03-22T07:54:33;29.92;;;12.00;;
66095;SDS011;53861;53.422;14.530;2024-03-22T07:57:09;29.98;;;13.23;;
66095;SDS011;53861;53.422;14.530;2024-03-22T07:59:38;29.25;;;12.98;;
66095;SDS011;53861;53.422;14.530;2024-03-22T08:02:05;23.05;;;9.70;;
66095;SDS011;53861;53.422;14.530;2024-03-22T08:04:31;26.95;;;11.95;;
66095;SDS011;53861;53.422;14.530;2024-03-22T08:07:00;31.15;;;13.25;;
66095;SDS011;53861;53.422;14.530;2024-03-22T08:09:26;31.38;;;12.70;;
66095;SDS011;53861;53.422;14.530;2024-03-22T08:11:53;33.85;;;13.60;;
66095;SDS011;53861;53.422;14.530;2024-03-22T08:14:19;32.20;;;13.13;;
66095;SDS011;53861;53.422;14.530;2024-03-22T08:16:46;32.65;;;12.95;;
66095;SDS011;53861;53.422;14.530;2024-03-22T08:19:13;32.45;;;14.48;;
66095;SDS011;53861;53.422;14.530;2024-03-22T08:21:40;31.80;;;12.43;;
66095;SDS011;53861;53.422;14.530;2024-03-22T08:24:07;31.92;;;14.27;;
66095;SDS011;53861;53.422;14.530;2024-03-22T08:26:35;30.45;;;12.25;;
66095;SDS011;53861;53.422;14.530;2024-03-22T08:29:01;28.77;;;12.30;;
66095;SDS011;53861;53.422;14.530;2024-03-22T08:31:28;31.13;;;12.27;;
66095;SDS011;53861;53.422;14.530;2024-03-22T08:33:55;32.80;;;14.43;;
66095;SDS011;53861;53.422;14.530;2024-03-22T08:36:22;35.25;;;15.77;;
66095;SDS011;53861;53.422;14.530;2024-03-22T08:38:49;38.70;;;14.48;;
66095;SDS011;53861;53.422;14.530;2024-03-22T08:41:20;37.17;;;14.48;;
66095;SDS011;53861;53.422;14.530;2024-03-22T08:43:47;40.35;;;15.27;;
66095;SDS011;53861;53.422;14.530;2024-03-22T08:46:14;33.03;;;13.95;;
66095;SDS011;53861;53.422;14.530;2024-03-22T08:48:40;33.17;;;13.00;;
66095;SDS011;53861;53.422;14.530;2024-03-22T08:51:08;19.13;;;9.07;;
66095;SDS011;53861;53.422;14.530;2024-03-22T08:53:34;37.05;;;14.95;;
66095;SDS011;53861;53.422;14.530;2024-03-22T08:56:01;29.45;;;11.95;;
66095;SDS011;53861;53.422;14.530;2024-03-22T08:58:29;34.10;;;13.18;;
66095;SDS011;53861;53.422;14.530;2024-03-22T09:00:56;34.90;;;14.02;;
66095;SDS011;53861;53.422;14.530;2024-03-22T09:03:26;32.53;;;13.20;;
66095;SDS011;53861;53.422;14.530;2024-03-22T09:05:53;35.28;;;14.63;;
66095;SDS011;53861;53.422;14.530;2024-03-22T09:08:19;35.38;;;13.68;;
66095;SDS011;53861;53.422;14.530;2024-03-22T09:10:53;33.20;;;13.45;;
66095;SDS011;53861;53.422;14.530;2024-03-22T09:13:19;35.72;;;13.50;;
66095;SDS011;53861;53.422;14.530;2024-03-22T09:15:48;31.20;;;13.27;;
66095;SDS011;53861;53.422;14.530;2024-03-22T09:18:21;28.63;;;11.70;;
66095;SDS011;53861;53.422;14.530;2024-03-22T09:20:48;30.60;;;11.05;;
66095;SDS011;53861;53.422;14.530;2024-03-22T09:23:15;31.80;;;13.88;;
66095;SDS011;53861;53.422;14.530;2024-03-22T09:25:42;28.20;;;11.02;;
66095;SDS011;53861;53.422;14.530;2024-03-22T09:28:08;35.53;;;12.68;;
66095;SDS011;53861;53.422;14.530;2024-03-22T09:30:37;33.08;;;14.85;;
66095;SDS011;53861;53.422;14.530;2024-03-22T09:33:05;37.42;;;15.35;;
66095;SDS011;53861;53.422;14.530;2024-03-22T09:35:33;34.05;;;14.48;;
66095;SDS011;53861;53.422;14.530;2024-03-22T09:38:00;32.35;;;13.02;;
66095;SDS011;53861;53.422;14.530;2024-03-22T09:40:27;33.15;;;13.00;;
66095;SDS011;53861;53.422;14.530;2024-03-22T09:42:54;31.92;;;13.43;;
66095;SDS011;53861;53.422;14.530;2024-03-22T09:45:28;31.92;;;13.20;;
66095;SDS011;53861;53.422;14.530;2024-03-22T09:47:55;26.17;;;11.60;;
66095;SDS011;53861;53.422;14.530;2024-03-22T09:50:25;32.50;;;13.85;;
66095;SDS011;53861;53.422;14.530;2024-03-22T09:52:52;35.85;;;15.48;;
66095;SDS011;53861;53.422;14.530;2024-03-22T09:55:22;35.88;;;15.10;;
66095;SDS011;53861;53.422;14.530;2024-03-22T09:57:49;35.55;;;13.57;;
66095;SDS011;53861;53.422;14.530;2024-03-22T10:00:19;29.45;;;9.90;;
66095;SDS011;53861;53.422;14.530;2024-03-22T10:02:47;27.60;;;10.50;;
66095;SDS011;53861;53.422;14.530;2024-03-22T10:05:15;36.55;;;14.30;;
66095;SDS011;53861;53.422;14.530;2024-03-22T10:07:44;36.78;;;14.35;;
66095;SDS011;53861;53.422;14.530;2024-03-22T10:10:12;33.47;;;13.05;;
66095;SDS011;53861;53.422;14.530;2024-03-22T10:12:39;32.83;;;13.77;;
66095;SDS011;53861;53.422;14.530;2024-03-22T10:15:10;34.08;;;12.80;;
66095;SDS011;53861;53.422;14.530;2024-03-22T10:17:39;31.52;;;11.30;;
66095;SDS011;53861;53.422;14.530;2024-03-22T10:20:06;29.92;;;12.23;;
66095;SDS011;53861;53.422;14.530;2024-03-22T10:22:38;34.28;;;14.65;;
66095;SDS011;53861;53.422;14.530;2024-03-22T10:25:10;34.25;;;14.10;;
66095;SDS011;53861;53.422;14.530;2024-03-22T10:27:43;32.15;;;13.35;;
66095;SDS011;53861;53.422;14.530;2024-03-22T10:30:11;32.10;;;13.15;;
66095;SDS011;53861;53.422;14.530;2024-03-22T10:32:42;24.38;;;9.60;;
66095;SDS011;53861;53.422;14.530;2024-03-22T10:35:11;36.38;;;15.63;;
66095;SDS011;53861;53.422;14.530;2024-03-22T10:37:38;36.75;;;15.43;;
66095;SDS011;53861;53.422;14.530;2024-03-22T10:40:06;32.42;;;13.32;;
66095;SDS011;53861;53.422;14.530;2024-03-22T10:42:35;29.70;;;12.85;;
66095;SDS011;53861;53.422;14.530;2024-03-22T10:45:04;32.47;;;13.68;;
66095;SDS011;53861;53.422;14.530;2024-03-22T10:47:32;31.70;;;13.15;;
66095;SDS011;53861;53.422;14.530;2024-03-22T10:50:03;38.85;;;14.98;;
66095;SDS011;53861;53.422;14.530;2024-03-22T10:52:32;30.13;;;11.95;;
66095;SDS011;53861;53.422;14.530;2024-03-22T10:55:02;30.08;;;13.07;;
66095;SDS011;53861;53.422;14.530;2024-03-22T10:57:30;33.75;;;13.20;;
66095;SDS011;53861;53.422;14.530;2024-03-22T11:00:00;33.35;;;13.32;;
66095;SDS011;53861;53.422;14.530;2024-03-22T11:02:29;34.83;;;14.68;;
66095;SDS011;53861;53.422;14.530;2024-03-22T11:04:57;33.53;;;12.80;;
66095;SDS011;53861;53.422;14.530;2024-03-22T11:07:23;29.38;;;11.75;;
66095;SDS011;53861;53.422;14.530;2024-03-22T11:09:56;23.90;;;10.30;;
66095;SDS011;53861;53.422;14.530;2024-03-22T11:12:24;32.10;;;13.32;;
66095;SDS011;53861;53.422;14.530;2024-03-22T11:14:52;30.08;;;13.25;;
66095;SDS011;53861;53.422;14.530;2024-03-22T11:17:20;26.83;;;12.18;;
66095;SDS011;53861;53.422;14.530;2024-03-22T11:19:50;25.95;;;11.18;;
66095;SDS011;53861;53.422;14.530;2024-03-22T11:22:17;30.55;;;13.55;;
66095;SDS011;53861;53.422;14.530;2024-03-22T11:24:52;25.98;;;12.27;;
66095;SDS011;53861;53.422;14.530;2024-03-22T11:27:25;31.45;;;13.43;;
66095;SDS011;53861;53.422;14.530;2024-03-22T11:30:01;34.38;;;15.90;;
66095;SDS011;53861;53.422;14.530;2024-03-22T11:32:30;31.58;;;14.38;;
66095;SDS011;53861;53.422;14.530;2024-03-22T11:34:57;27.88;;;11.73;;
66095;SDS011;53861;53.422;14.530;2024-03-22T11:37:23;44.25;;;18.90;;
66095;SDS011;53861;53.422;14.530;2024-03-22T11:39:51;31.08;;;14.25;;
66095;SDS011;53861;53.422;14.530;2024-03-22T11:42:17;31.48;;;15.38;;
66095;SDS011;53861;53.422;14.530;2024-03-22T11:44:54;36.28;;;17.02;;
66095;SDS011;53861;53.422;14.530;2024-03-22T11:47:23;32.20;;;13.98;;
66095;SDS011;53861;53.422;14.530;2024-03-22T11:49:51;31.98;;;13.65;;
66095;SDS011;53861;53.422;14.530;2024-03-22T11:52:18;26.70;;;11.10;;
66095;SDS011;53861;53.422;14.530;2024-03-22T11:54:49;37.05;;;15.18;;
66095;SDS011;53861;53.422;14.530;2024-03-22T11:57:17;32.28;;;14.00;;
66095;SDS011;53861;53.422;14.530;2024-03-22T11:59:58;19.05;;;8.98;;
66095;SDS011;53861;53.422;14.530;2024-03-22T12:02:25;31.63;;;13.45;;
66095;SDS011;53861;53.422;14.530;2024-03-22T12:04:54;32.92;;;14.10;;
66095;SDS011;53861;53.422;14.530;2024-03-22T12:07:20;30.17;;;12.90;;
66095;SDS011;53861;53.422;14.530;2024-03-22T12:09:50;34.10;;;14.48;;
66095;SDS011;53861;53.422;14.530;2024-03-22T12:12:17;34.30;;;14.68;;
66095;SDS011;53861;53.422;14.530;2024-03-22T12:14:48;32.72;;;14.35;;
66095;SDS011;53861;53.422;14.530;2024-03-22T12:17:16;37.30;;;15.15;;
66095;SDS011;53861;53.422;14.530;2024-03-22T12:19:44;37.42;;;15.63;;
66095;SDS011;53861;53.422;14.530;2024-03-22T12:22:12;36.15;;;15.00;;
66095;SDS011;53861;53.422;14.530;2024-03-22T12:24:39;36.20;;;15.32;;
66095;SDS011;53861;53.422;14.530;2024-03-22T12:27:05;25.20;;;10.25;;
66095;SDS011;53861;53.422;14.530;2024-03-22T12:29:32;39.58;;;15.32;;
66095;SDS011;53861;53.422;14.530;2024-03-22T12:31:59;36.15;;;15.20;;
66095;SDS011;53861;53.422;14.530;2024-03-22T12:34:27;35.60;;;14.55;;
66095;SDS011;53861;53.422;14.530;2024-03-22T12:36:55;32.60;;;14.52;;
66095;SDS011;53861;53.422;14.530;2024-03-22T12:39:23;34.67;;;14.85;;
66095;SDS011;53861;53.422;14.530;2024-03-22T12:41:49;31.13;;;13.77;;
66095;SDS011;53861;53.422;14.530;2024-03-22T12:44:17;32.33;;;13.82;;
66095;SDS011;53861;53.422;14.530;2024-03-22T12:46:43;30.13;;;13.15;;
66095;SDS011;53861;53.422;14.530;2024-03-22T12:49:10;28.38;;;11.80;;
66095;SDS011;53861;53.422;14.530;2024-03-22T12:51:37;30.33;;;12.68;;
66095;SDS011;53861;53.422;14.530;2024-03-22T12:54:05;27.40;;;12.50;;
66095;SDS011;53861;53.422;14.530;2024-03-22T12:56:34;34.42;;;14.18;;
66095;SDS011;53861;53.422;14.530;2024-03-22T12:59:02;34.38;;;15.68;;
66095;SDS011;53861;53.422;14.530;2024-03-22T13:01:28;30.90;;;14.30;;
66095;SDS011;53861;53.422;14.530;2024-03-22T13:03:58;33.45;;;14.80;;
66095;SDS011;53861;53.422;14.530;2024-03-22T13:08:56;28.88;;;12.10;;
66095;SDS011;53861;53.422;14.530;2024-03-22T13:11:25;29.75;;;13.55;;
66095;SDS011;53861;53.422;14.530;2024-03-22T13:13:54;33.42;;;14.27;;
66095;SDS011;53861;53.422;14.530;2024-03-22T13:16:20;30.08;;;13.27;;
66095;SDS011;53861;53.422;14.530;2024-03-22T13:18:48;38.20;;;14.45;;
66095;SDS011;53861;53.422;14.530;2024-03-22T13:21:15;31.45;;;13.80;;
66095;SDS011;53861;53.422;14.530;2024-03-22T13:23:42;31.63;;;13.68;;
66095;SDS011;53861;53.422;14.530;2024-03-22T13:26:09;29.02;;;11.68;;
66095;SDS011;53861;53.422;14.530;2024-03-22T13:28:35;24.55;;;10.13;;
66095;SDS011;53861;53.422;14.530;2024-03-22T13:31:04;32.10;;;15.07;;
66095;SDS011;53861;53.422;14.530;2024-03-22T13:33:34;32.10;;;14.73;;
66095;SDS011;53861;53.422;14.530;2024-03-22T13:36:04;35.38;;;15.18;;
66095;SDS011;53861;53.422;14.530;2024-03-22T13:38:31;34.70;;;14.25;;
66095;SDS011;53861;53.422;14.530;2024-03-22T13:41:01;35.00;;;14.27;;
66095;SDS011;53861;53.422;14.530;2024-03-22T13:43:31;28.90;;;14.10;;
66095;SDS011;53861;53.422;14.530;2024-03-22T13:46:00;33.95;;;14.70;;
66095;SDS011;53861;53.422;14.530;2024-03-22T13:48:28;36.03;;;15.73;;
66095;SDS011;53861;53.422;14.530;2024-03-22T13:50:55;36.13;;;15.05;;
66095;SDS011;53861;53.422;14.530;2024-03-22T13:53:23;31.02;;;14.40;;
66095;SDS011;53861;53.422;14.530;2024-03-22T13:55:50;24.70;;;10.20;;
66095;SDS011;53861;53.422;14.530;2024-03-22T13:58:18;35.35;;;16.45;;
66095;SDS011;53861;53.422;14.530;2024-03-22T14:00:45;33.90;;;14.93;;
66095;SDS011;53861;53.422;14.530;2024-03-22T14:03:13;39.72;;;17.77;;
66095;SDS011;53861;53.422;14.530;2024-03-22T14:05:43;32.63;;;15.63;;
66095;SDS011;53861;53.422;14.530;2024-03-22T14:08:09;35.65;;;15.43;;
66095;SDS011;53861;53.422;14.530;2024-03-22T14:10:36;33.80;;;14.55;;
66095;SDS011;53861;53.422;14.530;2024-03-22T14:13:05;38.75;;;15.10;;
66095;SDS011;53861;53.422;14.530;2024-03-22T14:15:33;34.53;;;14.90;;
66095;SDS011;53861;53.422;14.530;2024-03-22T14:18:04;35.58;;;15.07;;
66095;SDS011;53861;53.422;14.530;2024-03-22T14:20:32;38.08;;;15.73;;